Terminal Aerodrome Forecast
Issued by NWS

Home | Current Version | Previous Version | Graphics & Text | Print | Product List | Glossary On
Versions: 1 2 3 4 5 6 7 8 9 10 11 12 13 14 15 16 17 18 19 20 21 22 23 24 25 26 27
935
FTUS43 KGRB 151059 AAB
TAFMTW
TAF AMD
KMTW 151059Z 1511/1606 23006KT P6SM -SHSN OVC040
      TEMPO 1511/1512 3SM -SHSN BKN028
     FM151300 29010KT P6SM -SHSN OVC030
     FM151500 29013G19KT P6SM -SHSN BKN035
     FM152300 28010KT P6SM -SHSN BKN045
     FM160000 28006KT P6SM BKN050=

USA.gov is the U.S. government's official web portal to all federal, state and local government web resources and services.